Terminal Aerodrome Forecast
Issued by NWS Grand Forks, ND

Home | Current Version | Previous Version | Text Only | Print | Product List | Glossary Off
Versions: 1 2 3 4 5 6 7 8 9 10 11 12 13 14 15 16

041
FTUS43 KFGF 162339
TAFFAR
TAF
KFAR 162339Z 1700/1724 36007KT P6SM OVC020
      TEMPO 1700/1702 4SM -SHRA OVC010
     FM170200 36007KT P6SM VCSH OVC010
     FM170300 36006KT P6SM VCSH OVC008
     FM171300 34009KT P6SM BKN010
     FM171400 34009KT P6SM SCT020=

USA.gov is the U.S. government's official web portal to all federal, state and local government web resources and services.